sensor_id;sensor_type;location;lat;lon;timestamp;temperature;humidity
31455;DHT22;18084;53.028;8.834;2023-02-13T00:00:58;6.90;99.90
31455;DHT22;18084;53.028;8.834;2023-02-13T00:03:23;7.00;99.90
31455;DHT22;18084;53.028;8.834;2023-02-13T00:05:49;6.70;99.90
31455;DHT22;18084;53.028;8.834;2023-02-13T00:08:14;6.90;99.90
31455;DHT22;18084;53.028;8.834;2023-02-13T00:10:40;7.00;99.90
31455;DHT22;18084;53.028;8.834;2023-02-13T00:13:05;6.70;99.90
31455;DHT22;18084;53.028;8.834;2023-02-13T00:15:31;8.50;99.90
31455;DHT22;18084;53.028;8.834;2023-02-13T00:17:56;6.90;99.90
31455;DHT22;18084;53.028;8.834;2023-02-13T00:20:22;7.00;99.90
31455;DHT22;18084;53.028;8.834;2023-02-13T00:22:47;6.50;99.90
31455;DHT22;18084;53.028;8.834;2023-02-13T00:25:13;6.90;99.90
31455;DHT22;18084;53.028;8.834;2023-02-13T00:27:38;6.90;99.90
31455;DHT22;18084;53.028;8.834;2023-02-13T00:30:05;7.80;99.90
31455;DHT22;18084;53.028;8.834;2023-02-13T00:32:31;6.90;99.90
31455;DHT22;18084;53.028;8.834;2023-02-13T00:34:56;6.90;99.90
31455;DHT22;18084;53.028;8.834;2023-02-13T00:37:23;6.90;99.90
31455;DHT22;18084;53.028;8.834;2023-02-13T00:39:48;6.60;99.90
31455;DHT22;18084;53.028;8.834;2023-02-13T00:42:14;6.70;99.90
31455;DHT22;18084;53.028;8.834;2023-02-13T00:44:39;6.80;99.90
31455;DHT22;18084;53.028;8.834;2023-02-13T00:47:05;6.80;99.90
31455;DHT22;18084;53.028;8.834;2023-02-13T00:49:30;6.80;99.90
31455;DHT22;18084;53.028;8.834;2023-02-13T00:51:56;6.60;99.90
31455;DHT22;18084;53.028;8.834;2023-02-13T00:54:21;6.80;99.90
31455;DHT22;18084;53.028;8.834;2023-02-13T00:56:47;6.80;99.90
31455;DHT22;18084;53.028;8.834;2023-02-13T00:59:13;6.80;99.90
31455;DHT22;18084;53.028;8.834;2023-02-13T01:01:39;9.20;99.90
31455;DHT22;18084;53.028;8.834;2023-02-13T01:04:05;6.80;99.90
31455;DHT22;18084;53.028;8.834;2023-02-13T01:06:30;6.70;99.90
31455;DHT22;18084;53.028;8.834;2023-02-13T01:08:56;6.70;99.90
31455;DHT22;18084;53.028;8.834;2023-02-13T01:11:22;6.70;99.90
31455;DHT22;18084;53.028;8.834;2023-02-13T01:13:47;6.70;99.90
31455;DHT22;18084;53.028;8.834;2023-02-13T01:16:13;6.70;99.90
31455;DHT22;18084;53.028;8.834;2023-02-13T01:18:40;6.70;99.90
31455;DHT22;18084;53.028;8.834;2023-02-13T01:21:07;6.60;99.90
31455;DHT22;18084;53.028;8.834;2023-02-13T01:23:37;6.50;99.90
31455;DHT22;18084;53.028;8.834;2023-02-13T01:26:06;6.70;99.90
31455;DHT22;18084;53.028;8.834;2023-02-13T01:28:33;6.60;99.90
31455;DHT22;18084;53.028;8.834;2023-02-13T01:31:00;6.50;99.90
31455;DHT22;18084;53.028;8.834;2023-02-13T01:33:26;6.60;99.90
31455;DHT22;18084;53.028;8.834;2023-02-13T01:35:52;6.60;99.90
31455;DHT22;18084;53.028;8.834;2023-02-13T01:38:17;6.60;99.90
31455;DHT22;18084;53.028;8.834;2023-02-13T01:40:47;6.40;99.90
31455;DHT22;18084;53.028;8.834;2023-02-13T01:43:13;6.40;99.90
31455;DHT22;18084;53.028;8.834;2023-02-13T01:45:38;6.50;99.90
31455;DHT22;18084;53.028;8.834;2023-02-13T01:48:17;6.50;99.90
31455;DHT22;18084;53.028;8.834;2023-02-13T01:50:54;6.60;99.90
31455;DHT22;18084;53.028;8.834;2023-02-13T01:56:21;6.40;99.90
31455;DHT22;18084;53.028;8.834;2023-02-13T01:58:48;6.60;99.90
31455;DHT22;18084;53.028;8.834;2023-02-13T02:01:15;6.40;99.90
31455;DHT22;18084;53.028;8.834;2023-02-13T02:03:54;6.50;99.90
31455;DHT22;18084;53.028;8.834;2023-02-13T02:06:27;6.60;99.90
31455;DHT22;18084;53.028;8.834;2023-02-13T02:08:57;6.60;99.90
31455;DHT22;18084;53.028;8.834;2023-02-13T02:11:43;6.60;99.90
31455;DHT22;18084;53.028;8.834;2023-02-13T02:14:11;6.60;99.90
31455;DHT22;18084;53.028;8.834;2023-02-13T02:16:36;6.50;99.90
31455;DHT22;18084;53.028;8.834;2023-02-13T02:19:04;6.60;99.90
31455;DHT22;18084;53.028;8.834;2023-02-13T02:21:58;7.00;99.90
31455;DHT22;18084;53.028;8.834;2023-02-13T02:24:42;6.60;99.90
31455;DHT22;18084;53.028;8.834;2023-02-13T02:30:26;6.60;99.90
31455;DHT22;18084;53.028;8.834;2023-02-13T02:46:45;6.50;99.90
31455;DHT22;18084;53.028;8.834;2023-02-13T02:49:37;6.50;99.90
31455;DHT22;18084;53.028;8.834;2023-02-13T02:52:42;6.40;99.90
31455;DHT22;18084;53.028;8.834;2023-02-13T02:58:08;6.50;99.90
31455;DHT22;18084;53.028;8.834;2023-02-13T03:00:54;6.50;99.90
31455;DHT22;18084;53.028;8.834;2023-02-13T03:03:40;6.40;99.90
31455;DHT22;18084;53.028;8.834;2023-02-13T03:06:26;9.30;99.90
31455;DHT22;18084;53.028;8.834;2023-02-13T03:08:58;8.40;99.90
31455;DHT22;18084;53.028;8.834;2023-02-13T03:11:48;6.40;99.90
31455;DHT22;18084;53.028;8.834;2023-02-13T03:16:59;6.50;99.90
31455;DHT22;18084;53.028;8.834;2023-02-13T03:32:11;6.30;99.90
31455;DHT22;18084;53.028;8.834;2023-02-13T03:34:49;6.40;99.90
31455;DHT22;18084;53.028;8.834;2023-02-13T03:37:38;6.30;99.90
31455;DHT22;18084;53.028;8.834;2023-02-13T03:40:26;6.20;99.90
31455;DHT22;18084;53.028;8.834;2023-02-13T03:43:03;6.50;99.90
31455;DHT22;18084;53.028;8.834;2023-02-13T03:45:37;6.40;99.90
31455;DHT22;18084;53.028;8.834;2023-02-13T03:48:31;6.40;99.90
31455;DHT22;18084;53.028;8.834;2023-02-13T03:51:22;6.50;99.90
31455;DHT22;18084;53.028;8.834;2023-02-13T03:53:54;6.50;99.90
31455;DHT22;18084;53.028;8.834;2023-02-13T03:56:21;6.50;99.90
31455;DHT22;18084;53.028;8.834;2023-02-13T03:59:08;6.50;99.90
31455;DHT22;18084;53.028;8.834;2023-02-13T04:01:47;6.50;99.90
31455;DHT22;18084;53.028;8.834;2023-02-13T04:09:24;6.50;99.90
31455;DHT22;18084;53.028;8.834;2023-02-13T04:12:21;6.40;99.90
31455;DHT22;18084;53.028;8.834;2023-02-13T04:15:00;6.50;99.90
31455;DHT22;18084;53.028;8.834;2023-02-13T04:17:34;6.40;99.90
31455;DHT22;18084;53.028;8.834;2023-02-13T04:20:00;6.50;99.90
31455;DHT22;18084;53.028;8.834;2023-02-13T04:22:26;6.50;99.90
31455;DHT22;18084;53.028;8.834;2023-02-13T04:24:52;6.50;99.90
31455;DHT22;18084;53.028;8.834;2023-02-13T04:27:20;6.40;99.90
31455;DHT22;18084;53.028;8.834;2023-02-13T04:32:15;6.50;99.90
31455;DHT22;18084;53.028;8.834;2023-02-13T04:34:41;6.20;99.90
31455;DHT22;18084;53.028;8.834;2023-02-13T04:37:07;6.40;99.90
31455;DHT22;18084;53.028;8.834;2023-02-13T04:39:32;6.40;99.90
31455;DHT22;18084;53.028;8.834;2023-02-13T04:41:58;6.30;99.90
31455;DHT22;18084;53.028;8.834;2023-02-13T04:44:23;6.50;99.90
31455;DHT22;18084;53.028;8.834;2023-02-13T04:46:49;6.30;99.90
31455;DHT22;18084;53.028;8.834;2023-02-13T04:49:14;6.40;99.90
31455;DHT22;18084;53.028;8.834;2023-02-13T04:51:40;6.30;99.90
31455;DHT22;18084;53.028;8.834;2023-02-13T04:54:05;6.30;99.90
31455;DHT22;18084;53.028;8.834;2023-02-13T04:56:31;6.50;99.90
31455;DHT22;18084;53.028;8.834;2023-02-13T04:58:56;6.30;99.90
31455;DHT22;18084;53.028;8.834;2023-02-13T05:01:23;6.40;99.90
31455;DHT22;18084;53.028;8.834;2023-02-13T05:03:48;6.50;99.90
31455;DHT22;18084;53.028;8.834;2023-02-13T05:06:14;6.50;99.90
31455;DHT22;18084;53.028;8.834;2023-02-13T05:08:39;6.40;99.90
31455;DHT22;18084;53.028;8.834;2023-02-13T05:11:05;6.30;99.90
31455;DHT22;18084;53.028;8.834;2023-02-13T05:13:31;6.40;99.90
31455;DHT22;18084;53.028;8.834;2023-02-13T05:15:57;6.40;99.90
31455;DHT22;18084;53.028;8.834;2023-02-13T05:18:22;8.50;99.90
31455;DHT22;18084;53.028;8.834;2023-02-13T05:20:47;6.40;99.90
31455;DHT22;18084;53.028;8.834;2023-02-13T05:23:33;6.50;99.90
31455;DHT22;18084;53.028;8.834;2023-02-13T05:25:59;6.40;99.90
31455;DHT22;18084;53.028;8.834;2023-02-13T05:28:24;6.30;99.90
31455;DHT22;18084;53.028;8.834;2023-02-13T05:31:09;6.50;99.90
31455;DHT22;18084;53.028;8.834;2023-02-13T05:33:34;6.50;99.90
31455;DHT22;18084;53.028;8.834;2023-02-13T05:38:25;6.50;99.90
31455;DHT22;18084;53.028;8.834;2023-02-13T05:40:51;6.40;99.90
31455;DHT22;18084;53.028;8.834;2023-02-13T05:43:17;6.20;99.90
31455;DHT22;18084;53.028;8.834;2023-02-13T05:45:43;6.50;99.90
31455;DHT22;18084;53.028;8.834;2023-02-13T05:48:08;6.40;99.90
31455;DHT22;18084;53.028;8.834;2023-02-13T05:50:35;6.50;99.90
31455;DHT22;18084;53.028;8.834;2023-02-13T05:53:03;6.50;99.90
31455;DHT22;18084;53.028;8.834;2023-02-13T05:55:28;8.70;99.90
31455;DHT22;18084;53.028;8.834;2023-02-13T05:57:57;6.40;99.90
31455;DHT22;18084;53.028;8.834;2023-02-13T06:00:23;6.40;99.90
31455;DHT22;18084;53.028;8.834;2023-02-13T06:02:48;6.50;99.90
31455;DHT22;18084;53.028;8.834;2023-02-13T06:05:14;6.40;99.90
31455;DHT22;18084;53.028;8.834;2023-02-13T06:07:40;6.50;99.90
31455;DHT22;18084;53.028;8.834;2023-02-13T06:10:06;6.50;99.90
31455;DHT22;18084;53.028;8.834;2023-02-13T06:12:31;6.40;99.90
31455;DHT22;18084;53.028;8.834;2023-02-13T06:14:57;5.90;99.90
31455;DHT22;18084;53.028;8.834;2023-02-13T06:17:25;6.40;99.90
31455;DHT22;18084;53.028;8.834;2023-02-13T06:19:51;6.20;99.90
31455;DHT22;18084;53.028;8.834;2023-02-13T06:22:16;6.50;99.90
31455;DHT22;18084;53.028;8.834;2023-02-13T06:24:42;7.40;99.90
31455;DHT22;18084;53.028;8.834;2023-02-13T06:27:07;6.30;99.90
31455;DHT22;18084;53.028;8.834;2023-02-13T06:29:33;6.40;99.90
31455;DHT22;18084;53.028;8.834;2023-02-13T06:31:58;8.10;99.90
31455;DHT22;18084;53.028;8.834;2023-02-13T06:34:24;6.50;99.90
31455;DHT22;18084;53.028;8.834;2023-02-13T06:36:49;6.50;99.90
31455;DHT22;18084;53.028;8.834;2023-02-13T06:39:15;6.50;99.90
31455;DHT22;18084;53.028;8.834;2023-02-13T06:41:40;6.40;99.90
31455;DHT22;18084;53.028;8.834;2023-02-13T06:44:06;6.30;99.90
31455;DHT22;18084;53.028;8.834;2023-02-13T06:46:32;6.40;99.90
31455;DHT22;18084;53.028;8.834;2023-02-13T06:48:58;6.40;99.90
31455;DHT22;18084;53.028;8.834;2023-02-13T06:51:24;5.90;99.90
31455;DHT22;18084;53.028;8.834;2023-02-13T06:53:49;6.40;99.90
31455;DHT22;18084;53.028;8.834;2023-02-13T06:56:15;6.40;99.90
31455;DHT22;18084;53.028;8.834;2023-02-13T06:58:40;6.40;99.90
31455;DHT22;18084;53.028;8.834;2023-02-13T07:01:06;6.30;99.90
31455;DHT22;18084;53.028;8.834;2023-02-13T07:03:31;6.40;99.90
31455;DHT22;18084;53.028;8.834;2023-02-13T07:05:57;6.30;99.90
31455;DHT22;18084;53.028;8.834;2023-02-13T07:08:23;6.30;99.90
31455;DHT22;18084;53.028;8.834;2023-02-13T07:10:48;6.50;99.90
31455;DHT22;18084;53.028;8.834;2023-02-13T07:13:14;6.50;99.90
31455;DHT22;18084;53.028;8.834;2023-02-13T07:15:39;6.50;99.90
31455;DHT22;18084;53.028;8.834;2023-02-13T07:18:05;6.50;99.90
31455;DHT22;18084;53.028;8.834;2023-02-13T07:20:31;6.50;99.90
31455;DHT22;18084;53.028;8.834;2023-02-13T07:22:58;6.50;99.90
31455;DHT22;18084;53.028;8.834;2023-02-13T07:25:24;6.50;99.90
31455;DHT22;18084;53.028;8.834;2023-02-13T07:27:50;6.50;99.90
31455;DHT22;18084;53.028;8.834;2023-02-13T07:30:15;6.50;99.90
31455;DHT22;18084;53.028;8.834;2023-02-13T07:32:41;6.60;99.90
31455;DHT22;18084;53.028;8.834;2023-02-13T07:35:07;6.50;99.90
31455;DHT22;18084;53.028;8.834;2023-02-13T07:37:32;6.60;99.90
31455;DHT22;18084;53.028;8.834;2023-02-13T07:39:58;6.50;99.90
31455;DHT22;18084;53.028;8.834;2023-02-13T07:42:23;6.60;99.90
31455;DHT22;18084;53.028;8.834;2023-02-13T07:44:49;6.30;99.90
31455;DHT22;18084;53.028;8.834;2023-02-13T07:47:14;6.60;99.90
31455;DHT22;18084;53.028;8.834;2023-02-13T07:49:40;6.60;99.90
31455;DHT22;18084;53.028;8.834;2023-02-13T07:52:05;6.60;99.90
31455;DHT22;18084;53.028;8.834;2023-02-13T07:54:31;6.50;99.90
31455;DHT22;18084;53.028;8.834;2023-02-13T07:56:57;6.60;99.90
31455;DHT22;18084;53.028;8.834;2023-02-13T07:59:23;6.60;99.90
31455;DHT22;18084;53.028;8.834;2023-02-13T08:01:48;6.70;99.90
31455;DHT22;18084;53.028;8.834;2023-02-13T08:04:14;7.90;99.90
31455;DHT22;18084;53.028;8.834;2023-02-13T08:06:39;6.50;99.90
31455;DHT22;18084;53.028;8.834;2023-02-13T08:09:05;6.60;99.90
31455;DHT22;18084;53.028;8.834;2023-02-13T08:12:07;6.70;99.90
31455;DHT22;18084;53.028;8.834;2023-02-13T08:14:33;6.60;99.90
31455;DHT22;18084;53.028;8.834;2023-02-13T08:16:59;6.70;99.90
31455;DHT22;18084;53.028;8.834;2023-02-13T08:19:26;6.80;99.90
31455;DHT22;18084;53.028;8.834;2023-02-13T08:21:51;6.80;99.90
31455;DHT22;18084;53.028;8.834;2023-02-13T08:24:17;6.80;99.90
31455;DHT22;18084;53.028;8.834;2023-02-13T08:26:43;6.90;99.90
31455;DHT22;18084;53.028;8.834;2023-02-13T08:29:09;6.80;99.90
31455;DHT22;18084;53.028;8.834;2023-02-13T08:31:36;6.90;99.90
31455;DHT22;18084;53.028;8.834;2023-02-13T08:34:02;6.90;99.90
31455;DHT22;18084;53.028;8.834;2023-02-13T08:36:28;6.90;99.90
31455;DHT22;18084;53.028;8.834;2023-02-13T08:38:53;6.90;99.90
31455;DHT22;18084;53.028;8.834;2023-02-13T08:41:19;6.90;99.90
31455;DHT22;18084;53.028;8.834;2023-02-13T08:43:48;6.90;99.90
31455;DHT22;18084;53.028;8.834;2023-02-13T08:46:15;7.00;99.90
31455;DHT22;18084;53.028;8.834;2023-02-13T08:48:41;7.00;99.90
31455;DHT22;18084;53.028;8.834;2023-02-13T08:51:07;7.10;99.90
31455;DHT22;18084;53.028;8.834;2023-02-13T08:53:33;7.10;99.90
31455;DHT22;18084;53.028;8.834;2023-02-13T08:55:58;7.10;99.90
31455;DHT22;18084;53.028;8.834;2023-02-13T08:58:24;7.10;99.90
31455;DHT22;18084;53.028;8.834;2023-02-13T09:00:50;7.10;99.90
31455;DHT22;18084;53.028;8.834;2023-02-13T09:03:15;7.20;99.90
31455;DHT22;18084;53.028;8.834;2023-02-13T09:05:41;7.20;99.90
31455;DHT22;18084;53.028;8.834;2023-02-13T09:08:07;7.20;99.90
31455;DHT22;18084;53.028;8.834;2023-02-13T09:10:36;7.20;99.90
31455;DHT22;18084;53.028;8.834;2023-02-13T09:13:01;7.20;99.90
31455;DHT22;18084;53.028;8.834;2023-02-13T09:15:27;7.20;99.90
31455;DHT22;18084;53.028;8.834;2023-02-13T09:17:52;7.30;99.90
31455;DHT22;18084;53.028;8.834;2023-02-13T09:20:18;7.30;99.90
31455;DHT22;18084;53.028;8.834;2023-02-13T09:22:43;7.30;99.90
31455;DHT22;18084;53.028;8.834;2023-02-13T09:25:09;7.30;99.90
31455;DHT22;18084;53.028;8.834;2023-02-13T09:27:35;7.30;99.90
31455;DHT22;18084;53.028;8.834;2023-02-13T09:30:04;7.30;99.90
31455;DHT22;18084;53.028;8.834;2023-02-13T09:32:31;7.30;99.90
31455;DHT22;18084;53.028;8.834;2023-02-13T09:34:58;7.30;99.90
31455;DHT22;18084;53.028;8.834;2023-02-13T09:37:26;7.40;99.90
31455;DHT22;18084;53.028;8.834;2023-02-13T09:39:54;7.40;99.90
31455;DHT22;18084;53.028;8.834;2023-02-13T09:42:26;7.50;99.90
31455;DHT22;18084;53.028;8.834;2023-02-13T09:44:57;7.50;99.90
31455;DHT22;18084;53.028;8.834;2023-02-13T09:47:30;7.50;99.90
31455;DHT22;18084;53.028;8.834;2023-02-13T09:50:18;7.50;99.90
31455;DHT22;18084;53.028;8.834;2023-02-13T09:52:48;7.60;99.90
31455;DHT22;18084;53.028;8.834;2023-02-13T09:55:15;7.60;99.90
31455;DHT22;18084;53.028;8.834;2023-02-13T09:58:18;7.60;99.90
31455;DHT22;18084;53.028;8.834;2023-02-13T10:00:53;7.70;99.90
31455;DHT22;18084;53.028;8.834;2023-02-13T10:03:30;7.60;99.90
31455;DHT22;18084;53.028;8.834;2023-02-13T10:09:12;7.60;99.90
31455;DHT22;18084;53.028;8.834;2023-02-13T10:14:51;7.70;99.90
31455;DHT22;18084;53.028;8.834;2023-02-13T10:17:23;7.60;99.90
31455;DHT22;18084;53.028;8.834;2023-02-13T10:20:26;7.60;99.90
31455;DHT22;18084;53.028;8.834;2023-02-13T10:23:43;7.70;99.90
31455;DHT22;18084;53.028;8.834;2023-02-13T10:26:04;7.70;99.90
31455;DHT22;18084;53.028;8.834;2023-02-13T10:28:57;7.80;99.90
31455;DHT22;18084;53.028;8.834;2023-02-13T10:31:44;7.80;99.90
31455;DHT22;18084;53.028;8.834;2023-02-13T10:34:15;7.80;99.90
31455;DHT22;18084;53.028;8.834;2023-02-13T10:36:44;7.90;99.90
31455;DHT22;18084;53.028;8.834;2023-02-13T10:39:27;7.90;99.90
31455;DHT22;18084;53.028;8.834;2023-02-13T10:42:25;7.90;99.90
31455;DHT22;18084;53.028;8.834;2023-02-13T10:45:35;7.90;99.90
31455;DHT22;18084;53.028;8.834;2023-02-13T10:48:27;7.90;99.90
31455;DHT22;18084;53.028;8.834;2023-02-13T10:51:00;7.90;99.90
31455;DHT22;18084;53.028;8.834;2023-02-13T10:56:16;7.90;99.90
31455;DHT22;18084;53.028;8.834;2023-02-13T10:59:03;7.80;99.90
31455;DHT22;18084;53.028;8.834;2023-02-13T11:04:08;8.00;99.90
31455;DHT22;18084;53.028;8.834;2023-02-13T11:06:40;8.00;99.90
31455;DHT22;18084;53.028;8.834;2023-02-13T11:09:07;8.10;99.90
31455;DHT22;18084;53.028;8.834;2023-02-13T11:11:39;8.10;99.90
31455;DHT22;18084;53.028;8.834;2023-02-13T11:14:25;8.10;99.90
31455;DHT22;18084;53.028;8.834;2023-02-13T11:17:05;8.10;99.90
31455;DHT22;18084;53.028;8.834;2023-02-13T11:19:36;8.10;99.90
31455;DHT22;18084;53.028;8.834;2023-02-13T11:22:07;8.00;99.90
31455;DHT22;18084;53.028;8.834;2023-02-13T11:24:36;8.00;99.90
31455;DHT22;18084;53.028;8.834;2023-02-13T11:27:06;8.10;99.90
31455;DHT22;18084;53.028;8.834;2023-02-13T11:29:35;8.10;99.90
31455;DHT22;18084;53.028;8.834;2023-02-13T11:32:06;8.10;99.90
31455;DHT22;18084;53.028;8.834;2023-02-13T11:34:43;8.10;99.90
31455;DHT22;18084;53.028;8.834;2023-02-13T11:37:17;8.20;99.90
31455;DHT22;18084;53.028;8.834;2023-02-13T11:39:45;8.20;99.90
31455;DHT22;18084;53.028;8.834;2023-02-13T11:42:33;8.20;99.90
31455;DHT22;18084;53.028;8.834;2023-02-13T11:47:41;8.30;99.90
31455;DHT22;18084;53.028;8.834;2023-02-13T11:50:29;8.30;99.90
31455;DHT22;18084;53.028;8.834;2023-02-13T11:53:04;8.30;99.90
31455;DHT22;18084;53.028;8.834;2023-02-13T11:55:35;8.30;99.90
31455;DHT22;18084;53.028;8.834;2023-02-13T12:00:41;8.30;99.90
31455;DHT22;18084;53.028;8.834;2023-02-13T12:08:36;8.40;99.90
31455;DHT22;18084;53.028;8.834;2023-02-13T12:11:24;8.40;99.90
31455;DHT22;18084;53.028;8.834;2023-02-13T12:13:52;8.40;99.90
31455;DHT22;18084;53.028;8.834;2023-02-13T12:16:35;8.40;99.90
31455;DHT22;18084;53.028;8.834;2023-02-13T12:19:06;8.40;99.90
31455;DHT22;18084;53.028;8.834;2023-02-13T12:30:35;8.40;99.90
31455;DHT22;18084;53.028;8.834;2023-02-13T12:33:30;8.40;99.90
31455;DHT22;18084;53.028;8.834;2023-02-13T12:36:15;8.40;99.90
31455;DHT22;18084;53.028;8.834;2023-02-13T12:39:13;8.30;99.90
31455;DHT22;18084;53.028;8.834;2023-02-13T12:42:07;8.30;99.90
31455;DHT22;18084;53.028;8.834;2023-02-13T12:44:47;8.20;99.90
31455;DHT22;18084;53.028;8.834;2023-02-13T12:47:36;8.30;99.90
31455;DHT22;18084;53.028;8.834;2023-02-13T12:56:31;8.30;99.90
31455;DHT22;18084;53.028;8.834;2023-02-13T12:59:26;8.40;99.90
31455;DHT22;18084;53.028;8.834;2023-02-13T13:02:16;8.40;99.90
31455;DHT22;18084;53.028;8.834;2023-02-13T13:16:01;8.50;99.90
31455;DHT22;18084;53.028;8.834;2023-02-13T13:26:45;8.40;99.90
31455;DHT22;18084;53.028;8.834;2023-02-13T13:29:20;8.40;99.90
31455;DHT22;18084;53.028;8.834;2023-02-13T13:32:02;8.40;99.90
31455;DHT22;18084;53.028;8.834;2023-02-13T13:34:32;8.50;99.90
31455;DHT22;18084;53.028;8.834;2023-02-13T13:40:00;8.50;99.90
31455;DHT22;18084;53.028;8.834;2023-02-13T13:48:04;8.50;99.90
31455;DHT22;18084;53.028;8.834;2023-02-13T13:50:39;8.60;99.90
31455;DHT22;18084;53.028;8.834;2023-02-13T13:53:09;8.60;99.90
31455;DHT22;18084;53.028;8.834;2023-02-13T13:58:36;8.60;99.90
31455;DHT22;18084;53.028;8.834;2023-02-13T14:06:28;8.50;99.90
31455;DHT22;18084;53.028;8.834;2023-02-13T14:09:54;8.50;99.90
31455;DHT22;18084;53.028;8.834;2023-02-13T14:14:56;8.40;99.90
31455;DHT22;18084;53.028;8.834;2023-02-13T14:20:39;8.40;99.90
31455;DHT22;18084;53.028;8.834;2023-02-13T14:25:33;8.40;99.90
31455;DHT22;18084;53.028;8.834;2023-02-13T14:28:03;8.40;99.90
31455;DHT22;18084;53.028;8.834;2023-02-13T14:30:35;8.40;99.90
31455;DHT22;18084;53.028;8.834;2023-02-13T14:33:06;8.70;99.90
31455;DHT22;18084;53.028;8.834;2023-02-13T14:35:34;8.40;99.90
31455;DHT22;18084;53.028;8.834;2023-02-13T14:38:05;8.40;99.90
31455;DHT22;18084;53.028;8.834;2023-02-13T14:40:46;8.40;99.90
31455;DHT22;18084;53.028;8.834;2023-02-13T14:43:36;8.40;99.90
31455;DHT22;18084;53.028;8.834;2023-02-13T14:46:13;8.40;99.90
31455;DHT22;18084;53.028;8.834;2023-02-13T14:48:55;8.40;99.90
31455;DHT22;18084;53.028;8.834;2023-02-13T14:51:27;8.40;99.90
31455;DHT22;18084;53.028;8.834;2023-02-13T14:54:05;8.40;99.90
31455;DHT22;18084;53.028;8.834;2023-02-13T14:56:31;8.40;99.90
31455;DHT22;18084;53.028;8.834;2023-02-13T14:59:09;8.30;99.90
31455;DHT22;18084;53.028;8.834;2023-02-13T15:01:44;8.30;99.90
31455;DHT22;18084;53.028;8.834;2023-02-13T15:04:29;8.30;99.90
31455;DHT22;18084;53.028;8.834;2023-02-13T15:06:57;8.30;99.90
31455;DHT22;18084;53.028;8.834;2023-02-13T15:09:38;8.20;99.90
31455;DHT22;18084;53.028;8.834;2023-02-13T15:12:25;8.30;99.90
31455;DHT22;18084;53.028;8.834;2023-02-13T15:14:51;8.40;99.90
31455;DHT22;18084;53.028;8.834;2023-02-13T15:17:27;8.30;99.90
31455;DHT22;18084;53.028;8.834;2023-02-13T15:20:01;8.30;99.90
31455;DHT22;18084;53.028;8.834;2023-02-13T15:22:34;8.30;99.90
31455;DHT22;18084;53.028;8.834;2023-02-13T15:25:01;8.30;99.90
31455;DHT22;18084;53.028;8.834;2023-02-13T15:27:32;8.30;99.90
31455;DHT22;18084;53.028;8.834;2023-02-13T15:30:16;8.20;99.90
31455;DHT22;18084;53.028;8.834;2023-02-13T15:32:42;8.20;99.90
31455;DHT22;18084;53.028;8.834;2023-02-13T15:35:30;8.20;99.90
31455;DHT22;18084;53.028;8.834;2023-02-13T15:37:54;8.20;99.90
31455;DHT22;18084;53.028;8.834;2023-02-13T15:40:27;8.20;99.90
31455;DHT22;18084;53.028;8.834;2023-02-13T15:42:54;8.10;99.90
31455;DHT22;18084;53.028;8.834;2023-02-13T15:45:22;8.20;99.90
31455;DHT22;18084;53.028;8.834;2023-02-13T15:47:49;8.10;99.90
31455;DHT22;18084;53.028;8.834;2023-02-13T15:50:23;8.20;99.90
31455;DHT22;18084;53.028;8.834;2023-02-13T15:52:50;8.10;99.90
31455;DHT22;18084;53.028;8.834;2023-02-13T15:55:17;8.10;99.90
31455;DHT22;18084;53.028;8.834;2023-02-13T15:57:43;8.10;99.90
31455;DHT22;18084;53.028;8.834;2023-02-13T16:00:12;8.10;99.90
31455;DHT22;18084;53.028;8.834;2023-02-13T16:02:45;8.10;99.90
31455;DHT22;18084;53.028;8.834;2023-02-13T16:05:13;8.00;99.90
31455;DHT22;18084;53.028;8.834;2023-02-13T16:07:59;8.00;99.90
31455;DHT22;18084;53.028;8.834;2023-02-13T16:10:34;8.00;99.90
31455;DHT22;18084;53.028;8.834;2023-02-13T16:13:05;8.00;99.90
31455;DHT22;18084;53.028;8.834;2023-02-13T16:15:34;8.00;99.90
31455;DHT22;18084;53.028;8.834;2023-02-13T16:18:02;8.00;99.90
31455;DHT22;18084;53.028;8.834;2023-02-13T16:20:52;7.90;99.90
31455;DHT22;18084;53.028;8.834;2023-02-13T16:23:19;8.00;99.90
31455;DHT22;18084;53.028;8.834;2023-02-13T16:25:46;7.90;99.90
31455;DHT22;18084;53.028;8.834;2023-02-13T16:28:16;7.90;99.90
31455;DHT22;18084;53.028;8.834;2023-02-13T16:30:44;7.80;99.90
31455;DHT22;18084;53.028;8.834;2023-02-13T16:35:51;7.80;99.90
31455;DHT22;18084;53.028;8.834;2023-02-13T16:43:55;7.80;99.90
31455;DHT22;18084;53.028;8.834;2023-02-13T16:46:23;7.70;99.90
31455;DHT22;18084;53.028;8.834;2023-02-13T16:56:58;7.70;99.90
31455;DHT22;18084;53.028;8.834;2023-02-13T17:02:38;7.70;99.90
31455;DHT22;18084;53.028;8.834;2023-02-13T17:07:33;7.70;99.90
31455;DHT22;18084;53.028;8.834;2023-02-13T17:10:03;7.70;99.90
31455;DHT22;18084;53.028;8.834;2023-02-13T17:12:33;7.70;99.90
31455;DHT22;18084;53.028;8.834;2023-02-13T17:14:59;7.70;99.90
31455;DHT22;18084;53.028;8.834;2023-02-13T17:17:26;7.70;99.90
31455;DHT22;18084;53.028;8.834;2023-02-13T17:19:52;7.70;99.90
31455;DHT22;18084;53.028;8.834;2023-02-13T17:22:22;7.60;99.90
31455;DHT22;18084;53.028;8.834;2023-02-13T17:24:50;7.60;99.90
31455;DHT22;18084;53.028;8.834;2023-02-13T17:27:15;7.60;99.90
31455;DHT22;18084;53.028;8.834;2023-02-13T17:29:41;7.60;99.90
31455;DHT22;18084;53.028;8.834;2023-02-13T17:32:07;7.60;99.90
31455;DHT22;18084;53.028;8.834;2023-02-13T17:34:32;7.60;99.90
31455;DHT22;18084;53.028;8.834;2023-02-13T17:36:58;7.60;99.90
31455;DHT22;18084;53.028;8.834;2023-02-13T17:39:23;7.60;99.90
31455;DHT22;18084;53.028;8.834;2023-02-13T17:41:49;7.60;99.90
31455;DHT22;18084;53.028;8.834;2023-02-13T17:44:14;7.60;99.90
31455;DHT22;18084;53.028;8.834;2023-02-13T17:46:40;7.60;99.90
31455;DHT22;18084;53.028;8.834;2023-02-13T17:49:05;7.60;99.90
31455;DHT22;18084;53.028;8.834;2023-02-13T17:51:31;7.50;99.90
31455;DHT22;18084;53.028;8.834;2023-02-13T17:53:56;7.60;99.90
31455;DHT22;18084;53.028;8.834;2023-02-13T17:56:22;7.60;99.90
31455;DHT22;18084;53.028;8.834;2023-02-13T17:58:47;7.60;99.90
31455;DHT22;18084;53.028;8.834;2023-02-13T18:01:13;7.60;99.90
31455;DHT22;18084;53.028;8.834;2023-02-13T18:03:38;7.50;99.90
31455;DHT22;18084;53.028;8.834;2023-02-13T18:06:05;7.60;99.90
31455;DHT22;18084;53.028;8.834;2023-02-13T18:08:31;7.50;99.90
31455;DHT22;18084;53.028;8.834;2023-02-13T18:10:57;7.50;99.90
31455;DHT22;18084;53.028;8.834;2023-02-13T18:13:22;7.50;99.90
31455;DHT22;18084;53.028;8.834;2023-02-13T18:15:48;7.50;99.90
31455;DHT22;18084;53.028;8.834;2023-02-13T18:18:14;7.50;99.90
31455;DHT22;18084;53.028;8.834;2023-02-13T18:20:40;7.50;99.90
31455;DHT22;18084;53.028;8.834;2023-02-13T18:23:06;7.50;99.90
31455;DHT22;18084;53.028;8.834;2023-02-13T18:25:32;7.40;99.90
31455;DHT22;18084;53.028;8.834;2023-02-13T18:27:58;7.40;99.90
31455;DHT22;18084;53.028;8.834;2023-02-13T18:30:24;7.40;99.90
31455;DHT22;18084;53.028;8.834;2023-02-13T18:32:53;7.40;99.90
31455;DHT22;18084;53.028;8.834;2023-02-13T18:35:20;7.30;99.90
31455;DHT22;18084;53.028;8.834;2023-02-13T18:37:45;7.40;99.90
31455;DHT22;18084;53.028;8.834;2023-02-13T18:40:11;7.40;99.90